Canden, North Carolina
Current Conditions -  °F | °C
As of 6:56 PM on Tuesday 25 Nov 2014 (Local Time) from KHFF Reporting Station
Rain Showers Rain Showers  
Wind Chill: 56°   Ceiling: 11000
Heat Index: 56°   Visibility: 10mi
Dew Point: 49°   Wind: 5mph
Humidity: 77%   Direction: 60°ENE
Pressure: 30.08"   Gusts: NA
Location:  35.2241°N, 79.7861°W
Report Text: KHFF 252356Z AUTO 06004KT 10SM -SHRA FEW016 BKN110 13/09 A3008 RMK AO2 SLP188 T01310092 10174 20131 50008
Loading
Personal Weather Stations






























Interactive Weather Map New forecast layout! Learn more

10-Day Weather Forecast

Advertisements
Track Severe Weather on mobile